Terminal Aerodrome Forecast
Issued by NWS

Home | Current Version | Previous Version | Graphics & Text | Print | Product List | Glossary On
Versions: 1 2 3 4 5 6 7 8 9 10 11 12 13 14 15 16 17 18 19 20 21 22 23 24 25 26 27 28 29 30 31 32 33 34 35 36 37
000
FTUS43 KLOT 061807 AAA
TAFDPA
TAF AMD
KDPA 061807Z 0618/0718 19012G21KT P6SM BKN040 BKN250
     FM061930 21012G23KT 3SM TSRA BKN040CB OVC180
     FM062100 21012G23KT P6SM VCSH BKN040 OVC100
     FM070200 22011G15KT 4SM -TSRA BKN025CB OVC035
     FM070600 29010KT 5SM BR VCSH SCT008 BKN015 OVC035
     FM071200 35011KT P6SM BKN015 OVC035
     FM071600 02012KT P6SM BKN035=

USA.gov is the U.S. government's official web portal to all federal, state and local government web resources and services.